Tanna Airport Tanna VU
ICAO: NVVW
IATA: TAH
Category: Medium
Scheduled Services: Yes

Elevation: 19 ft
TransAlt. 11000 ft.

Airport Communications:
VILA FLT SVC:655.3
CTAF:120.7

NVVW Zoom In..

If you have problems with the map follow the link
https://www.worldairports.se/pages/airport.php?
ICAO=NVVW

Runways:

(A) RW 15 length 4035 ft width 98 ft
---- / hdg 145

(B) RW 33 length 4035 ft width 98 ft
---- / hdg 325

Location; NVVW
Day. 21 / Time. 09.00 Zulu
* QNH: 1011
* Temperature: 22° c. 71.6°f.
* Wind from: 100° Speed 03 kn.
Dewpoint: 19° c.
No significant clouds are observed below 5000 ft (automated data).

NVVW 210900Z AUTO 10003KT //// // NCD 22/19 Q1011


Wind From 100°
Speed 03 kn.

 
 
jpsmedia worldairports.se 2020   terms of use